sensor_id;sensor_type;location;lat;lon;timestamp;P1;durP1;ratioP1;P2;durP2;ratioP2
36799;SDS011;22752;51.960;5.886;2023-03-01T00:02:00;5.43;;;3.40;;
36799;SDS011;22752;51.960;5.886;2023-03-01T00:04:26;5.17;;;3.53;;
36799;SDS011;22752;51.960;5.886;2023-03-01T00:06:52;5.10;;;3.50;;
36799;SDS011;22752;51.960;5.886;2023-03-01T00:09:18;4.63;;;3.33;;
36799;SDS011;22752;51.960;5.886;2023-03-01T00:11:44;5.00;;;3.00;;
36799;SDS011;22752;51.960;5.886;2023-03-01T00:14:10;5.30;;;3.40;;
36799;SDS011;22752;51.960;5.886;2023-03-01T00:16:37;6.13;;;3.07;;
36799;SDS011;22752;51.960;5.886;2023-03-01T00:19:04;3.67;;;3.10;;
36799;SDS011;22752;51.960;5.886;2023-03-01T00:21:31;4.23;;;3.07;;
36799;SDS011;22752;51.960;5.886;2023-03-01T00:23:58;5.40;;;3.20;;
36799;SDS011;22752;51.960;5.886;2023-03-01T00:26:24;5.53;;;3.50;;
36799;SDS011;22752;51.960;5.886;2023-03-01T00:28:51;4.90;;;3.30;;
36799;SDS011;22752;51.960;5.886;2023-03-01T00:31:19;3.80;;;3.07;;
36799;SDS011;22752;51.960;5.886;2023-03-01T00:33:46;5.00;;;3.43;;
36799;SDS011;22752;51.960;5.886;2023-03-01T00:36:12;4.20;;;2.80;;
36799;SDS011;22752;51.960;5.886;2023-03-01T00:38:42;6.73;;;3.57;;
36799;SDS011;22752;51.960;5.886;2023-03-01T00:41:11;3.90;;;2.70;;
36799;SDS011;22752;51.960;5.886;2023-03-01T00:43:40;6.03;;;3.20;;
36799;SDS011;22752;51.960;5.886;2023-03-01T00:46:07;5.07;;;3.10;;
36799;SDS011;22752;51.960;5.886;2023-03-01T00:48:35;7.33;;;3.60;;
36799;SDS011;22752;51.960;5.886;2023-03-01T00:51:20;3.77;;;3.13;;
36799;SDS011;22752;51.960;5.886;2023-03-01T00:53:55;5.53;;;4.00;;
36799;SDS011;22752;51.960;5.886;2023-03-01T00:56:23;4.53;;;3.40;;
36799;SDS011;22752;51.960;5.886;2023-03-01T00:58:49;5.00;;;3.17;;
36799;SDS011;22752;51.960;5.886;2023-03-01T01:01:16;5.47;;;3.60;;
36799;SDS011;22752;51.960;5.886;2023-03-01T01:04:03;6.83;;;3.47;;
36799;SDS011;22752;51.960;5.886;2023-03-01T01:06:34;6.53;;;3.30;;
36799;SDS011;22752;51.960;5.886;2023-03-01T01:09:03;4.72;;;3.33;;
36799;SDS011;22752;51.960;5.886;2023-03-01T01:11:30;6.93;;;3.83;;
36799;SDS011;22752;51.960;5.886;2023-03-01T01:13:56;4.70;;;3.57;;
36799;SDS011;22752;51.960;5.886;2023-03-01T01:16:23;3.63;;;2.97;;
36799;SDS011;22752;51.960;5.886;2023-03-01T01:18:50;4.77;;;3.20;;
36799;SDS011;22752;51.960;5.886;2023-03-01T01:21:17;9.13;;;3.73;;
36799;SDS011;22752;51.960;5.886;2023-03-01T01:23:45;5.50;;;3.20;;
36799;SDS011;22752;51.960;5.886;2023-03-01T01:26:16;6.07;;;3.40;;
36799;SDS011;22752;51.960;5.886;2023-03-01T01:28:47;5.37;;;3.20;;
36799;SDS011;22752;51.960;5.886;2023-03-01T01:31:13;5.80;;;3.30;;
36799;SDS011;22752;51.960;5.886;2023-03-01T01:33:39;6.43;;;3.83;;
36799;SDS011;22752;51.960;5.886;2023-03-01T01:36:06;5.47;;;3.90;;
36799;SDS011;22752;51.960;5.886;2023-03-01T01:38:32;5.53;;;3.50;;
36799;SDS011;22752;51.960;5.886;2023-03-01T01:40:59;5.97;;;4.00;;
36799;SDS011;22752;51.960;5.886;2023-03-01T01:43:26;7.17;;;4.00;;
36799;SDS011;22752;51.960;5.886;2023-03-01T01:45:58;6.10;;;3.83;;
36799;SDS011;22752;51.960;5.886;2023-03-01T01:48:32;6.50;;;4.67;;
36799;SDS011;22752;51.960;5.886;2023-03-01T01:51:05;10.77;;;5.57;;
36799;SDS011;22752;51.960;5.886;2023-03-01T01:53:34;8.10;;;5.50;;
36799;SDS011;22752;51.960;5.886;2023-03-01T01:56:01;7.63;;;5.10;;
36799;SDS011;22752;51.960;5.886;2023-03-01T01:58:30;8.60;;;5.73;;
36799;SDS011;22752;51.960;5.886;2023-03-01T02:00:56;8.83;;;6.37;;
36799;SDS011;22752;51.960;5.886;2023-03-01T02:03:26;10.23;;;5.83;;
36799;SDS011;22752;51.960;5.886;2023-03-01T02:06:17;7.53;;;4.90;;
36799;SDS011;22752;51.960;5.886;2023-03-01T02:08:47;7.33;;;5.17;;
36799;SDS011;22752;51.960;5.886;2023-03-01T02:11:15;7.53;;;5.00;;
36799;SDS011;22752;51.960;5.886;2023-03-01T02:13:43;8.47;;;5.30;;
36799;SDS011;22752;51.960;5.886;2023-03-01T02:16:13;8.03;;;5.30;;
36799;SDS011;22752;51.960;5.886;2023-03-01T02:18:40;6.23;;;4.73;;
36799;SDS011;22752;51.960;5.886;2023-03-01T02:22:12;8.37;;;6.07;;
36799;SDS011;22752;51.960;5.886;2023-03-01T02:24:10;11.07;;;6.53;;
36799;SDS011;22752;51.960;5.886;2023-03-01T02:26:53;8.90;;;5.77;;
36799;SDS011;22752;51.960;5.886;2023-03-01T02:29:22;7.83;;;6.17;;
36799;SDS011;22752;51.960;5.886;2023-03-01T02:31:49;8.97;;;6.27;;
36799;SDS011;22752;51.960;5.886;2023-03-01T02:34:17;8.73;;;5.87;;
36799;SDS011;22752;51.960;5.886;2023-03-01T02:36:53;9.97;;;6.40;;
36799;SDS011;22752;51.960;5.886;2023-03-01T02:39:25;8.73;;;5.63;;
36799;SDS011;22752;51.960;5.886;2023-03-01T02:41:55;8.80;;;5.90;;
36799;SDS011;22752;51.960;5.886;2023-03-01T02:44:22;7.60;;;5.43;;
36799;SDS011;22752;51.960;5.886;2023-03-01T02:46:50;8.77;;;5.73;;
36799;SDS011;22752;51.960;5.886;2023-03-01T02:57:26;6.43;;;5.20;;
36799;SDS011;22752;51.960;5.886;2023-03-01T02:59:54;7.67;;;4.73;;
36799;SDS011;22752;51.960;5.886;2023-03-01T03:02:22;7.33;;;4.93;;
36799;SDS011;22752;51.960;5.886;2023-03-01T03:05:12;6.27;;;4.43;;
36799;SDS011;22752;51.960;5.886;2023-03-01T03:07:42;7.37;;;4.40;;
36799;SDS011;22752;51.960;5.886;2023-03-01T03:10:10;6.57;;;3.90;;
36799;SDS011;22752;51.960;5.886;2023-03-01T03:12:39;7.17;;;4.17;;
36799;SDS011;22752;51.960;5.886;2023-03-01T03:15:06;7.23;;;4.20;;
36799;SDS011;22752;51.960;5.886;2023-03-01T03:17:37;4.90;;;3.80;;
36799;SDS011;22752;51.960;5.886;2023-03-01T03:20:04;6.13;;;4.23;;
36799;SDS011;22752;51.960;5.886;2023-03-01T03:22:31;7.13;;;4.60;;
36799;SDS011;22752;51.960;5.886;2023-03-01T03:24:59;7.03;;;4.43;;
36799;SDS011;22752;51.960;5.886;2023-03-01T03:27:24;7.40;;;4.57;;
36799;SDS011;22752;51.960;5.886;2023-03-01T03:29:50;6.07;;;4.30;;
36799;SDS011;22752;51.960;5.886;2023-03-01T03:32:16;8.70;;;3.67;;
36799;SDS011;22752;51.960;5.886;2023-03-01T03:34:41;5.73;;;4.27;;
36799;SDS011;22752;51.960;5.886;2023-03-01T03:37:07;5.27;;;3.90;;
36799;SDS011;22752;51.960;5.886;2023-03-01T03:39:52;5.77;;;3.80;;
36799;SDS011;22752;51.960;5.886;2023-03-01T03:42:20;7.03;;;4.70;;
36799;SDS011;22752;51.960;5.886;2023-03-01T03:44:47;7.57;;;4.70;;
36799;SDS011;22752;51.960;5.886;2023-03-01T03:47:12;5.53;;;4.03;;
36799;SDS011;22752;51.960;5.886;2023-03-01T03:49:38;10.93;;;5.07;;
36799;SDS011;22752;51.960;5.886;2023-03-01T03:52:04;7.57;;;5.57;;
36799;SDS011;22752;51.960;5.886;2023-03-01T03:54:29;8.13;;;5.40;;
36799;SDS011;22752;51.960;5.886;2023-03-01T03:56:55;7.20;;;5.03;;
36799;SDS011;22752;51.960;5.886;2023-03-01T03:59:21;6.43;;;4.90;;
36799;SDS011;22752;51.960;5.886;2023-03-01T04:01:47;7.63;;;5.57;;
36799;SDS011;22752;51.960;5.886;2023-03-01T04:04:12;7.97;;;5.33;;
36799;SDS011;22752;51.960;5.886;2023-03-01T04:06:38;9.47;;;5.97;;
36799;SDS011;22752;51.960;5.886;2023-03-01T04:09:04;8.80;;;5.23;;
36799;SDS011;22752;51.960;5.886;2023-03-01T04:11:29;7.13;;;5.33;;
36799;SDS011;22752;51.960;5.886;2023-03-01T04:13:56;9.50;;;5.57;;
36799;SDS011;22752;51.960;5.886;2023-03-01T04:16:23;8.77;;;5.53;;
36799;SDS011;22752;51.960;5.886;2023-03-01T04:18:49;7.70;;;5.20;;
36799;SDS011;22752;51.960;5.886;2023-03-01T04:21:15;7.23;;;5.00;;
36799;SDS011;22752;51.960;5.886;2023-03-01T04:23:41;7.60;;;4.97;;
36799;SDS011;22752;51.960;5.886;2023-03-01T04:26:07;7.17;;;5.10;;
36799;SDS011;22752;51.960;5.886;2023-03-01T04:28:34;7.60;;;5.30;;
36799;SDS011;22752;51.960;5.886;2023-03-01T04:31:05;10.60;;;5.37;;
36799;SDS011;22752;51.960;5.886;2023-03-01T04:33:49;7.77;;;4.90;;
36799;SDS011;22752;51.960;5.886;2023-03-01T04:36:20;8.17;;;5.07;;
36799;SDS011;22752;51.960;5.886;2023-03-01T04:38:48;6.90;;;4.60;;
36799;SDS011;22752;51.960;5.886;2023-03-01T04:41:15;7.60;;;5.13;;
36799;SDS011;22752;51.960;5.886;2023-03-01T04:43:42;13.57;;;5.47;;
36799;SDS011;22752;51.960;5.886;2023-03-01T04:46:08;8.90;;;5.50;;
36799;SDS011;22752;51.960;5.886;2023-03-01T04:48:40;8.07;;;5.30;;
36799;SDS011;22752;51.960;5.886;2023-03-01T04:51:07;8.17;;;5.07;;
36799;SDS011;22752;51.960;5.886;2023-03-01T04:53:33;8.57;;;5.47;;
36799;SDS011;22752;51.960;5.886;2023-03-01T04:56:01;8.20;;;5.27;;
36799;SDS011;22752;51.960;5.886;2023-03-01T04:58:27;9.73;;;5.83;;
36799;SDS011;22752;51.960;5.886;2023-03-01T05:00:53;7.57;;;4.70;;
36799;SDS011;22752;51.960;5.886;2023-03-01T05:03:19;6.13;;;4.37;;
36799;SDS011;22752;51.960;5.886;2023-03-01T05:05:46;7.77;;;4.70;;
36799;SDS011;22752;51.960;5.886;2023-03-01T05:08:14;6.70;;;4.07;;
36799;SDS011;22752;51.960;5.886;2023-03-01T05:10:48;6.70;;;4.83;;
36799;SDS011;22752;51.960;5.886;2023-03-01T05:13:15;7.88;;;4.90;;
36799;SDS011;22752;51.960;5.886;2023-03-01T05:15:53;6.87;;;4.50;;
36799;SDS011;22752;51.960;5.886;2023-03-01T05:18:20;7.30;;;4.43;;
36799;SDS011;22752;51.960;5.886;2023-03-01T05:20:46;9.17;;;4.43;;
36799;SDS011;22752;51.960;5.886;2023-03-01T05:23:12;6.57;;;4.37;;
36799;SDS011;22752;51.960;5.886;2023-03-01T05:25:38;6.67;;;4.40;;
36799;SDS011;22752;51.960;5.886;2023-03-01T05:28:05;6.83;;;4.30;;
36799;SDS011;22752;51.960;5.886;2023-03-01T05:30:35;8.50;;;5.00;;
36799;SDS011;22752;51.960;5.886;2023-03-01T05:33:03;5.93;;;4.23;;
36799;SDS011;22752;51.960;5.886;2023-03-01T05:35:32;7.40;;;5.03;;
36799;SDS011;22752;51.960;5.886;2023-03-01T05:37:58;6.57;;;4.27;;
36799;SDS011;22752;51.960;5.886;2023-03-01T05:40:24;6.47;;;4.40;;
36799;SDS011;22752;51.960;5.886;2023-03-01T05:42:51;7.83;;;4.40;;
36799;SDS011;22752;51.960;5.886;2023-03-01T05:45:19;6.53;;;4.93;;
36799;SDS011;22752;51.960;5.886;2023-03-01T05:47:47;8.57;;;5.00;;
36799;SDS011;22752;51.960;5.886;2023-03-01T05:50:14;7.00;;;4.83;;
36799;SDS011;22752;51.960;5.886;2023-03-01T05:52:48;6.67;;;5.07;;
36799;SDS011;22752;51.960;5.886;2023-03-01T05:55:16;7.63;;;5.23;;
36799;SDS011;22752;51.960;5.886;2023-03-01T05:57:43;8.47;;;5.10;;
36799;SDS011;22752;51.960;5.886;2023-03-01T06:00:09;7.80;;;4.70;;
36799;SDS011;22752;51.960;5.886;2023-03-01T06:02:36;8.47;;;4.63;;
36799;SDS011;22752;51.960;5.886;2023-03-01T06:05:03;6.20;;;4.57;;
36799;SDS011;22752;51.960;5.886;2023-03-01T06:07:30;10.37;;;4.73;;
36799;SDS011;22752;51.960;5.886;2023-03-01T06:09:56;6.80;;;4.37;;
36799;SDS011;22752;51.960;5.886;2023-03-01T06:12:22;8.77;;;5.07;;
36799;SDS011;22752;51.960;5.886;2023-03-01T06:14:47;8.73;;;5.10;;
36799;SDS011;22752;51.960;5.886;2023-03-01T06:17:13;6.50;;;4.50;;
36799;SDS011;22752;51.960;5.886;2023-03-01T06:19:39;7.80;;;4.80;;
36799;SDS011;22752;51.960;5.886;2023-03-01T06:22:04;5.70;;;3.80;;
36799;SDS011;22752;51.960;5.886;2023-03-01T06:24:30;9.73;;;5.00;;
36799;SDS011;22752;51.960;5.886;2023-03-01T06:26:56;7.50;;;4.63;;
36799;SDS011;22752;51.960;5.886;2023-03-01T06:29:21;7.63;;;4.97;;
36799;SDS011;22752;51.960;5.886;2023-03-01T06:31:47;7.00;;;5.00;;
36799;SDS011;22752;51.960;5.886;2023-03-01T06:34:14;9.77;;;5.53;;
36799;SDS011;22752;51.960;5.886;2023-03-01T06:36:39;8.00;;;4.67;;
36799;SDS011;22752;51.960;5.886;2023-03-01T06:39:06;7.07;;;5.10;;
36799;SDS011;22752;51.960;5.886;2023-03-01T06:41:31;8.53;;;5.00;;
36799;SDS011;22752;51.960;5.886;2023-03-01T06:43:58;6.33;;;4.10;;
36799;SDS011;22752;51.960;5.886;2023-03-01T06:46:24;6.67;;;4.50;;
36799;SDS011;22752;51.960;5.886;2023-03-01T06:48:50;9.57;;;5.30;;
36799;SDS011;22752;51.960;5.886;2023-03-01T06:51:16;14.60;;;6.10;;
36799;SDS011;22752;51.960;5.886;2023-03-01T06:53:42;10.57;;;6.17;;
36799;SDS011;22752;51.960;5.886;2023-03-01T06:56:07;9.07;;;5.80;;
36799;SDS011;22752;51.960;5.886;2023-03-01T06:58:33;10.83;;;6.90;;
36799;SDS011;22752;51.960;5.886;2023-03-01T07:00:59;11.10;;;6.50;;
36799;SDS011;22752;51.960;5.886;2023-03-01T07:03:24;12.37;;;6.73;;
36799;SDS011;22752;51.960;5.886;2023-03-01T07:05:50;11.30;;;6.40;;
36799;SDS011;22752;51.960;5.886;2023-03-01T07:08:17;12.43;;;7.23;;
36799;SDS011;22752;51.960;5.886;2023-03-01T07:10:43;12.33;;;7.33;;
36799;SDS011;22752;51.960;5.886;2023-03-01T07:13:09;10.20;;;6.70;;
36799;SDS011;22752;51.960;5.886;2023-03-01T07:15:35;10.63;;;7.10;;
36799;SDS011;22752;51.960;5.886;2023-03-01T07:18:01;13.23;;;7.30;;
36799;SDS011;22752;51.960;5.886;2023-03-01T07:20:27;12.53;;;7.70;;
36799;SDS011;22752;51.960;5.886;2023-03-01T07:22:53;18.07;;;7.87;;
36799;SDS011;22752;51.960;5.886;2023-03-01T07:25:20;11.17;;;6.97;;
36799;SDS011;22752;51.960;5.886;2023-03-01T07:27:51;13.33;;;7.03;;
36799;SDS011;22752;51.960;5.886;2023-03-01T07:30:17;9.77;;;6.83;;
36799;SDS011;22752;51.960;5.886;2023-03-01T07:32:44;10.17;;;7.07;;
36799;SDS011;22752;51.960;5.886;2023-03-01T07:35:10;9.80;;;6.80;;
36799;SDS011;22752;51.960;5.886;2023-03-01T07:37:36;13.17;;;6.77;;
36799;SDS011;22752;51.960;5.886;2023-03-01T07:40:02;12.50;;;6.83;;
36799;SDS011;22752;51.960;5.886;2023-03-01T07:42:27;12.50;;;6.93;;
36799;SDS011;22752;51.960;5.886;2023-03-01T07:44:53;10.03;;;6.57;;
36799;SDS011;22752;51.960;5.886;2023-03-01T07:47:19;9.47;;;6.23;;
36799;SDS011;22752;51.960;5.886;2023-03-01T07:49:44;11.33;;;6.20;;
36799;SDS011;22752;51.960;5.886;2023-03-01T07:52:10;10.17;;;6.63;;
36799;SDS011;22752;51.960;5.886;2023-03-01T07:54:37;10.77;;;6.33;;
36799;SDS011;22752;51.960;5.886;2023-03-01T07:57:03;9.60;;;6.20;;
36799;SDS011;22752;51.960;5.886;2023-03-01T07:59:28;9.63;;;6.30;;
36799;SDS011;22752;51.960;5.886;2023-03-01T08:01:57;9.50;;;6.13;;
36799;SDS011;22752;51.960;5.886;2023-03-01T08:04:23;9.00;;;6.33;;
36799;SDS011;22752;51.960;5.886;2023-03-01T08:06:52;10.03;;;5.90;;
36799;SDS011;22752;51.960;5.886;2023-03-01T08:09:19;13.33;;;5.93;;
36799;SDS011;22752;51.960;5.886;2023-03-01T08:11:44;9.33;;;5.43;;
36799;SDS011;22752;51.960;5.886;2023-03-01T08:14:10;12.33;;;5.60;;
36799;SDS011;22752;51.960;5.886;2023-03-01T08:16:36;11.43;;;6.50;;
36799;SDS011;22752;51.960;5.886;2023-03-01T08:19:08;9.13;;;5.37;;
36799;SDS011;22752;51.960;5.886;2023-03-01T08:21:35;9.20;;;5.77;;
36799;SDS011;22752;51.960;5.886;2023-03-01T08:24:02;8.37;;;5.23;;
36799;SDS011;22752;51.960;5.886;2023-03-01T08:26:29;12.00;;;6.13;;
36799;SDS011;22752;51.960;5.886;2023-03-01T08:28:55;8.57;;;5.57;;
36799;SDS011;22752;51.960;5.886;2023-03-01T08:31:22;12.73;;;5.67;;
36799;SDS011;22752;51.960;5.886;2023-03-01T08:33:50;8.30;;;5.07;;
36799;SDS011;22752;51.960;5.886;2023-03-01T08:36:20;8.27;;;5.23;;
36799;SDS011;22752;51.960;5.886;2023-03-01T08:38:47;13.90;;;6.17;;
36799;SDS011;22752;51.960;5.886;2023-03-01T08:41:13;8.10;;;5.60;;
36799;SDS011;22752;51.960;5.886;2023-03-01T08:43:39;9.97;;;5.50;;
36799;SDS011;22752;51.960;5.886;2023-03-01T08:46:05;9.70;;;5.83;;
36799;SDS011;22752;51.960;5.886;2023-03-01T08:48:30;10.83;;;6.27;;
36799;SDS011;22752;51.960;5.886;2023-03-01T08:50:56;9.80;;;5.60;;
36799;SDS011;22752;51.960;5.886;2023-03-01T08:53:22;7.93;;;5.60;;
36799;SDS011;22752;51.960;5.886;2023-03-01T08:55:48;12.03;;;6.07;;
36799;SDS011;22752;51.960;5.886;2023-03-01T08:58:13;12.27;;;6.37;;
36799;SDS011;22752;51.960;5.886;2023-03-01T09:00:39;11.40;;;6.13;;
36799;SDS011;22752;51.960;5.886;2023-03-01T09:03:05;16.90;;;6.03;;
36799;SDS011;22752;51.960;5.886;2023-03-01T09:05:32;10.10;;;6.00;;
36799;SDS011;22752;51.960;5.886;2023-03-01T09:07:59;8.37;;;5.40;;
36799;SDS011;22752;51.960;5.886;2023-03-01T09:10:24;8.90;;;5.00;;
36799;SDS011;22752;51.960;5.886;2023-03-01T09:12:51;10.33;;;5.87;;
36799;SDS011;22752;51.960;5.886;2023-03-01T09:15:16;10.20;;;5.60;;
36799;SDS011;22752;51.960;5.886;2023-03-01T09:17:42;9.90;;;5.63;;
36799;SDS011;22752;51.960;5.886;2023-03-01T09:20:08;6.87;;;4.53;;
36799;SDS011;22752;51.960;5.886;2023-03-01T09:22:35;8.60;;;4.90;;
36799;SDS011;22752;51.960;5.886;2023-03-01T09:25:00;8.70;;;4.90;;
36799;SDS011;22752;51.960;5.886;2023-03-01T09:27:26;8.80;;;5.17;;
36799;SDS011;22752;51.960;5.886;2023-03-01T09:29:52;11.47;;;5.03;;
36799;SDS011;22752;51.960;5.886;2023-03-01T09:32:17;7.83;;;5.17;;
36799;SDS011;22752;51.960;5.886;2023-03-01T09:34:43;8.63;;;5.47;;
36799;SDS011;22752;51.960;5.886;2023-03-01T09:37:29;10.13;;;5.97;;
36799;SDS011;22752;51.960;5.886;2023-03-01T09:39:56;10.93;;;5.20;;
36799;SDS011;22752;51.960;5.886;2023-03-01T09:42:21;8.07;;;5.13;;
36799;SDS011;22752;51.960;5.886;2023-03-01T09:47:36;11.50;;;5.97;;
36799;SDS011;22752;51.960;5.886;2023-03-01T09:50:08;13.23;;;6.90;;
36799;SDS011;22752;51.960;5.886;2023-03-01T09:55:15;10.57;;;6.30;;
36799;SDS011;22752;51.960;5.886;2023-03-01T10:08:33;10.10;;;5.47;;
36799;SDS011;22752;51.960;5.886;2023-03-01T10:11:03;10.87;;;6.93;;
36799;SDS011;22752;51.960;5.886;2023-03-01T10:19:05;12.23;;;7.33;;
36799;SDS011;22752;51.960;5.886;2023-03-01T10:21:39;16.50;;;8.03;;
36799;SDS011;22752;51.960;5.886;2023-03-01T10:24:16;11.30;;;7.13;;
36799;SDS011;22752;51.960;5.886;2023-03-01T10:26:56;9.30;;;7.00;;
36799;SDS011;22752;51.960;5.886;2023-03-01T10:29:26;11.93;;;6.37;;
36799;SDS011;22752;51.960;5.886;2023-03-01T10:32:03;8.87;;;5.63;;
36799;SDS011;22752;51.960;5.886;2023-03-01T10:34:33;8.93;;;5.93;;
36799;SDS011;22752;51.960;5.886;2023-03-01T10:39:58;12.03;;;6.73;;
36799;SDS011;22752;51.960;5.886;2023-03-01T10:42:33;13.10;;;6.43;;
36799;SDS011;22752;51.960;5.886;2023-03-01T10:45:27;8.87;;;6.13;;
36799;SDS011;22752;51.960;5.886;2023-03-01T10:50:37;12.47;;;6.03;;
36799;SDS011;22752;51.960;5.886;2023-03-01T10:53:04;10.40;;;6.13;;
36799;SDS011;22752;51.960;5.886;2023-03-01T10:55:41;13.33;;;6.93;;
36799;SDS011;22752;51.960;5.886;2023-03-01T10:58:19;9.43;;;5.67;;
36799;SDS011;22752;51.960;5.886;2023-03-01T11:03:17;8.73;;;5.63;;
36799;SDS011;22752;51.960;5.886;2023-03-01T11:08:35;11.93;;;5.70;;
36799;SDS011;22752;51.960;5.886;2023-03-01T11:11:16;9.90;;;5.47;;
36799;SDS011;22752;51.960;5.886;2023-03-01T11:19:19;8.47;;;5.40;;
36799;SDS011;22752;51.960;5.886;2023-03-01T11:24:18;11.53;;;5.47;;
36799;SDS011;22752;51.960;5.886;2023-03-01T11:26:50;8.50;;;5.20;;
36799;SDS011;22752;51.960;5.886;2023-03-01T11:31:54;7.63;;;5.30;;
36799;SDS011;22752;51.960;5.886;2023-03-01T11:37:20;11.20;;;5.80;;
36799;SDS011;22752;51.960;5.886;2023-03-01T11:39:58;9.20;;;5.00;;
36799;SDS011;22752;51.960;5.886;2023-03-01T11:45:36;10.33;;;5.47;;
36799;SDS011;22752;51.960;5.886;2023-03-01T11:51:05;8.50;;;4.90;;
36799;SDS011;22752;51.960;5.886;2023-03-01T11:56:32;8.97;;;5.03;;
36799;SDS011;22752;51.960;5.886;2023-03-01T12:18:12;6.70;;;4.93;;
36799;SDS011;22752;51.960;5.886;2023-03-01T12:23:52;9.47;;;4.90;;
36799;SDS011;22752;51.960;5.886;2023-03-01T12:43:28;7.83;;;4.93;;
36799;SDS011;22752;51.960;5.886;2023-03-01T12:49:14;6.97;;;5.00;;
36799;SDS011;22752;51.960;5.886;2023-03-01T12:51:45;8.17;;;5.50;;
36799;SDS011;22752;51.960;5.886;2023-03-01T12:54:26;10.13;;;4.60;;
36799;SDS011;22752;51.960;5.886;2023-03-01T12:56:56;7.03;;;4.97;;
36799;SDS011;22752;51.960;5.886;2023-03-01T13:07:23;7.43;;;4.57;;
36799;SDS011;22752;51.960;5.886;2023-03-01T13:12:51;7.53;;;4.40;;
36799;SDS011;22752;51.960;5.886;2023-03-01T13:15:27;7.43;;;4.20;;
36799;SDS011;22752;51.960;5.886;2023-03-01T13:17:54;6.47;;;4.80;;
36799;SDS011;22752;51.960;5.886;2023-03-01T13:20:23;8.43;;;4.60;;
36799;SDS011;22752;51.960;5.886;2023-03-01T13:23:51;7.13;;;5.03;;
36799;SDS011;22752;51.960;5.886;2023-03-01T13:31:06;10.80;;;4.73;;
36799;SDS011;22752;51.960;5.886;2023-03-01T13:33:41;8.90;;;4.30;;
36799;SDS011;22752;51.960;5.886;2023-03-01T13:36:08;6.77;;;4.37;;
36799;SDS011;22752;51.960;5.886;2023-03-01T13:41:11;8.68;;;4.75;;
36799;SDS011;22752;51.960;5.886;2023-03-01T13:43:40;7.77;;;4.70;;
36799;SDS011;22752;51.960;5.886;2023-03-01T13:46:11;8.73;;;5.00;;
36799;SDS011;22752;51.960;5.886;2023-03-01T13:48:43;7.67;;;4.20;;
36799;SDS011;22752;51.960;5.886;2023-03-01T13:51:12;7.37;;;4.87;;
36799;SDS011;22752;51.960;5.886;2023-03-01T13:53:40;7.13;;;4.40;;
36799;SDS011;22752;51.960;5.886;2023-03-01T13:56:20;8.70;;;4.60;;
36799;SDS011;22752;51.960;5.886;2023-03-01T13:58:59;7.55;;;4.45;;
36799;SDS011;22752;51.960;5.886;2023-03-01T14:01:29;8.30;;;4.77;;
36799;SDS011;22752;51.960;5.886;2023-03-01T14:03:57;7.27;;;4.33;;
36799;SDS011;22752;51.960;5.886;2023-03-01T14:06:25;5.57;;;3.93;;
36799;SDS011;22752;51.960;5.886;2023-03-01T14:09:05;5.90;;;4.30;;
36799;SDS011;22752;51.960;5.886;2023-03-01T14:14:36;7.10;;;4.50;;
36799;SDS011;22752;51.960;5.886;2023-03-01T14:20:02;8.03;;;4.33;;
36799;SDS011;22752;51.960;5.886;2023-03-01T14:22:36;7.67;;;4.47;;
36799;SDS011;22752;51.960;5.886;2023-03-01T14:25:06;7.40;;;4.07;;
36799;SDS011;22752;51.960;5.886;2023-03-01T14:27:45;6.87;;;4.63;;
36799;SDS011;22752;51.960;5.886;2023-03-01T14:30:25;5.90;;;4.53;;
36799;SDS011;22752;51.960;5.886;2023-03-01T14:33:05;8.70;;;5.17;;
36799;SDS011;22752;51.960;5.886;2023-03-01T14:35:49;8.83;;;5.00;;
36799;SDS011;22752;51.960;5.886;2023-03-01T14:41:12;8.00;;;4.50;;
36799;SDS011;22752;51.960;5.886;2023-03-01T14:43:47;7.73;;;4.70;;
36799;SDS011;22752;51.960;5.886;2023-03-01T14:46:21;7.17;;;4.93;;
36799;SDS011;22752;51.960;5.886;2023-03-01T14:48:51;7.03;;;4.70;;
36799;SDS011;22752;51.960;5.886;2023-03-01T14:51:21;5.67;;;4.00;;
36799;SDS011;22752;51.960;5.886;2023-03-01T14:53:47;6.57;;;4.40;;
36799;SDS011;22752;51.960;5.886;2023-03-01T14:56:15;9.60;;;4.77;;
36799;SDS011;22752;51.960;5.886;2023-03-01T14:58:42;6.43;;;4.30;;
36799;SDS011;22752;51.960;5.886;2023-03-01T15:01:13;9.50;;;4.47;;
36799;SDS011;22752;51.960;5.886;2023-03-01T15:03:44;8.80;;;4.47;;
36799;SDS011;22752;51.960;5.886;2023-03-01T15:06:16;6.20;;;4.47;;
36799;SDS011;22752;51.960;5.886;2023-03-01T15:08:46;8.70;;;4.63;;
36799;SDS011;22752;51.960;5.886;2023-03-01T15:11:19;8.75;;;4.00;;
36799;SDS011;22752;51.960;5.886;2023-03-01T15:13:52;5.83;;;3.73;;
36799;SDS011;22752;51.960;5.886;2023-03-01T15:19:04;5.83;;;4.13;;
36799;SDS011;22752;51.960;5.886;2023-03-01T15:21:38;8.37;;;4.40;;
36799;SDS011;22752;51.960;5.886;2023-03-01T15:24:07;6.30;;;4.07;;
36799;SDS011;22752;51.960;5.886;2023-03-01T15:27:12;9.67;;;4.60;;
36799;SDS011;22752;51.960;5.886;2023-03-01T15:29:39;9.17;;;4.60;;
36799;SDS011;22752;51.960;5.886;2023-03-01T15:32:20;7.93;;;4.80;;
36799;SDS011;22752;51.960;5.886;2023-03-01T15:34:57;9.10;;;4.20;;
36799;SDS011;22752;51.960;5.886;2023-03-01T15:40:23;10.33;;;4.03;;
36799;SDS011;22752;51.960;5.886;2023-03-01T15:42:57;8.25;;;4.13;;
36799;SDS011;22752;51.960;5.886;2023-03-01T15:45:24;9.60;;;4.30;;
36799;SDS011;22752;51.960;5.886;2023-03-01T15:47:53;5.73;;;4.00;;
36799;SDS011;22752;51.960;5.886;2023-03-01T15:52:50;8.37;;;4.10;;
36799;SDS011;22752;51.960;5.886;2023-03-01T15:57:47;7.80;;;3.83;;
36799;SDS011;22752;51.960;5.886;2023-03-01T16:00:14;6.97;;;4.20;;
36799;SDS011;22752;51.960;5.886;2023-03-01T16:02:41;5.57;;;3.83;;
36799;SDS011;22752;51.960;5.886;2023-03-01T16:05:24;5.50;;;3.50;;
36799;SDS011;22752;51.960;5.886;2023-03-01T16:07:52;7.13;;;3.90;;
36799;SDS011;22752;51.960;5.886;2023-03-01T16:10:18;5.97;;;3.77;;
36799;SDS011;22752;51.960;5.886;2023-03-01T16:12:44;5.70;;;3.83;;
36799;SDS011;22752;51.960;5.886;2023-03-01T16:17:49;7.87;;;3.60;;
36799;SDS011;22752;51.960;5.886;2023-03-01T16:20:15;6.93;;;3.60;;
36799;SDS011;22752;51.960;5.886;2023-03-01T16:22:42;6.60;;;3.67;;
36799;SDS011;22752;51.960;5.886;2023-03-01T16:25:09;5.23;;;3.70;;
36799;SDS011;22752;51.960;5.886;2023-03-01T16:27:35;6.27;;;3.53;;
36799;SDS011;22752;51.960;5.886;2023-03-01T16:30:01;6.00;;;3.80;;
36799;SDS011;22752;51.960;5.886;2023-03-01T16:32:27;4.97;;;3.27;;
36799;SDS011;22752;51.960;5.886;2023-03-01T16:34:52;8.17;;;3.77;;
36799;SDS011;22752;51.960;5.886;2023-03-01T16:37:18;7.13;;;3.60;;
36799;SDS011;22752;51.960;5.886;2023-03-01T16:39:44;7.03;;;3.43;;
36799;SDS011;22752;51.960;5.886;2023-03-01T16:42:11;5.43;;;3.30;;
36799;SDS011;22752;51.960;5.886;2023-03-01T16:44:36;5.13;;;3.20;;
36799;SDS011;22752;51.960;5.886;2023-03-01T16:47:02;3.90;;;3.07;;
36799;SDS011;22752;51.960;5.886;2023-03-01T16:49:28;4.43;;;3.20;;
36799;SDS011;22752;51.960;5.886;2023-03-01T16:51:54;6.13;;;3.43;;
36799;SDS011;22752;51.960;5.886;2023-03-01T16:54:19;6.13;;;3.40;;
36799;SDS011;22752;51.960;5.886;2023-03-01T16:56:45;9.90;;;3.37;;
36799;SDS011;22752;51.960;5.886;2023-03-01T16:59:10;5.20;;;3.37;;
36799;SDS011;22752;51.960;5.886;2023-03-01T17:01:36;6.70;;;3.30;;
36799;SDS011;22752;51.960;5.886;2023-03-01T17:04:06;6.10;;;3.20;;
36799;SDS011;22752;51.960;5.886;2023-03-01T17:06:32;6.40;;;3.10;;
36799;SDS011;22752;51.960;5.886;2023-03-01T17:08:58;6.47;;;3.43;;
36799;SDS011;22752;51.960;5.886;2023-03-01T17:11:24;5.60;;;3.33;;
36799;SDS011;22752;51.960;5.886;2023-03-01T17:13:50;7.10;;;3.57;;
36799;SDS011;22752;51.960;5.886;2023-03-01T17:16:17;5.60;;;3.23;;
36799;SDS011;22752;51.960;5.886;2023-03-01T17:18:44;6.53;;;3.50;;
36799;SDS011;22752;51.960;5.886;2023-03-01T17:21:11;5.23;;;3.10;;
36799;SDS011;22752;51.960;5.886;2023-03-01T17:23:38;6.53;;;3.53;;